createdAt,value
2023-04-16T00:00:28.572Z,2.47
2023-04-16T00:02:55.751Z,2.50
2023-04-16T00:05:23.047Z,2.60
2023-04-16T00:07:51.644Z,2.03
2023-04-16T00:10:19.005Z,2.23
2023-04-16T00:12:46.059Z,3.00
2023-04-16T00:15:13.228Z,2.33
2023-04-16T00:17:40.278Z,2.80
2023-04-16T00:20:09.045Z,2.60
2023-04-16T00:22:36.324Z,2.17
2023-04-16T00:25:03.952Z,2.30
2023-04-16T00:27:31.120Z,2.33
2023-04-16T00:29:58.193Z,2.23
2023-04-16T00:32:25.420Z,2.13
2023-04-16T00:34:52.434Z,2.50
2023-04-16T00:37:19.531Z,2.57
2023-04-16T00:39:46.951Z,2.53
2023-04-16T00:42:14.067Z,2.50
2023-04-16T00:44:41.173Z,2.10
2023-04-16T00:47:08.869Z,2.70
2023-04-16T00:49:36.668Z,2.70
2023-04-16T00:52:04.052Z,2.90
2023-04-16T00:54:32.384Z,2.70
2023-04-16T00:56:59.907Z,2.43
2023-04-16T00:59:27.917Z,2.67
2023-04-16T01:01:55.257Z,2.90
2023-04-16T01:04:22.579Z,3.13
2023-04-16T01:06:49.837Z,3.33
2023-04-16T01:09:17.425Z,2.85
2023-04-16T01:11:44.500Z,3.13
2023-04-16T01:14:12.026Z,3.93
2023-04-16T01:16:39.078Z,3.80
2023-04-16T01:19:06.137Z,3.30
2023-04-16T01:21:33.158Z,3.40
2023-04-16T01:24:04.686Z,3.23
2023-04-16T01:26:32.184Z,3.70
2023-04-16T01:29:00.491Z,3.57
2023-04-16T01:31:27.644Z,3.23
2023-04-16T01:33:54.690Z,3.90
2023-04-16T01:36:21.804Z,3.60
2023-04-16T01:38:49.147Z,3.70
2023-04-16T01:41:16.656Z,4.27
2023-04-16T01:43:43.705Z,4.03
2023-04-16T01:46:31.130Z,3.90
2023-04-16T01:48:58.770Z,3.97
2023-04-16T01:51:25.922Z,3.77
2023-04-16T01:53:53.115Z,4.20
2023-04-16T01:56:20.342Z,4.40
2023-04-16T01:58:47.495Z,4.60
2023-04-16T02:01:14.877Z,4.63
2023-04-16T02:03:42.228Z,4.10
2023-04-16T02:06:09.517Z,4.33
2023-04-16T02:08:37.922Z,4.20
2023-04-16T02:11:05.078Z,4.77
2023-04-16T02:13:32.119Z,4.90
2023-04-16T02:15:59.301Z,5.13
2023-04-16T02:18:26.580Z,5.33
2023-04-16T02:20:53.565Z,4.47
2023-04-16T02:23:20.809Z,5.30
2023-04-16T02:25:48.656Z,5.17
2023-04-16T02:28:17.176Z,5.50
2023-04-16T02:30:44.758Z,5.07
2023-04-16T02:33:12.914Z,5.73
2023-04-16T02:35:40.910Z,5.77
2023-04-16T02:38:08.916Z,6.17
2023-04-16T02:40:35.999Z,5.80
2023-04-16T02:43:03.362Z,5.77
2023-04-16T02:45:31.714Z,6.20
2023-04-16T02:47:59.380Z,7.03
2023-04-16T02:50:26.684Z,5.50
2023-04-16T02:52:54.100Z,5.23
2023-04-16T02:55:21.217Z,5.63
2023-04-16T02:57:48.319Z,5.77
2023-04-16T03:00:15.577Z,6.50
2023-04-16T03:02:42.777Z,5.80
2023-04-16T03:05:10.347Z,5.80
2023-04-16T03:07:39.235Z,5.80
2023-04-16T03:10:09.148Z,5.60
2023-04-16T03:12:36.346Z,6.00
2023-04-16T03:15:03.891Z,5.57
2023-04-16T03:17:30.989Z,5.57
2023-04-16T03:19:58.093Z,6.03
2023-04-16T03:22:25.228Z,5.60
2023-04-16T03:24:52.316Z,5.70
2023-04-16T03:27:19.458Z,6.10
2023-04-16T03:29:46.473Z,5.63
2023-04-16T03:32:13.523Z,6.03
2023-04-16T03:34:40.896Z,6.57
2023-04-16T03:37:11.961Z,6.53
2023-04-16T03:39:39.176Z,7.23
2023-04-16T03:42:06.662Z,6.03
2023-04-16T03:44:34.125Z,6.70
2023-04-16T03:47:01.313Z,6.77
2023-04-16T03:49:28.518Z,7.43
2023-04-16T03:51:55.556Z,7.57
2023-04-16T03:54:23.126Z,8.77
2023-04-16T03:56:50.514Z,8.10
2023-04-16T03:59:18.205Z,8.30
2023-04-16T04:01:45.519Z,8.50
2023-04-16T04:04:12.719Z,8.50
2023-04-16T04:06:40.092Z,8.52
2023-04-16T04:09:07.597Z,8.98
2023-04-16T04:11:34.877Z,8.63
2023-04-16T04:14:01.909Z,8.70
2023-04-16T04:16:29.358Z,9.10
2023-04-16T04:18:56.445Z,9.57
2023-04-16T04:21:23.829Z,9.20
2023-04-16T04:23:50.996Z,10.88
2023-04-16T04:26:18.288Z,9.60
2023-04-16T04:28:45.634Z,10.33
2023-04-16T04:31:13.520Z,10.55
2023-04-16T04:33:40.865Z,10.57
2023-04-16T04:36:08.020Z,10.02
2023-04-16T04:38:35.250Z,11.03
2023-04-16T04:41:02.524Z,10.93
2023-04-16T04:43:29.554Z,10.75
2023-04-16T04:45:56.604Z,9.83
2023-04-16T04:48:26.722Z,9.02
2023-04-16T04:50:54.128Z,10.57
2023-04-16T04:53:21.384Z,9.73
2023-04-16T04:55:52.292Z,10.33
2023-04-16T04:58:21.341Z,11.03
2023-04-16T05:00:48.574Z,10.40
2023-04-16T05:03:21.507Z,10.33
2023-04-16T05:05:49.156Z,10.27
2023-04-16T05:08:16.266Z,10.53
2023-04-16T05:10:43.367Z,10.07
2023-04-16T05:13:10.427Z,10.30
2023-04-16T05:15:37.827Z,11.40
2023-04-16T05:18:04.890Z,10.13
2023-04-16T05:20:31.930Z,10.13
2023-04-16T05:22:59.059Z,10.33
2023-04-16T05:25:26.234Z,10.68
2023-04-16T05:27:53.338Z,11.13
2023-04-16T05:30:20.631Z,9.80
2023-04-16T05:32:47.953Z,11.13
2023-04-16T05:35:17.307Z,10.57
2023-04-16T05:37:44.708Z,10.30
2023-04-16T05:40:14.194Z,9.40
2023-04-16T05:42:41.459Z,10.10
2023-04-16T05:45:09.558Z,10.00
2023-04-16T05:47:36.564Z,9.60
2023-04-16T05:50:03.664Z,9.63
2023-04-16T05:52:30.653Z,10.30
2023-04-16T05:55:01.511Z,10.37
2023-04-16T05:57:30.098Z,9.20
2023-04-16T05:59:57.290Z,9.60
2023-04-16T06:02:26.073Z,9.70
2023-04-16T06:04:53.429Z,10.38
2023-04-16T06:07:20.454Z,8.90
2023-04-16T06:09:47.547Z,9.40
2023-04-16T06:12:14.678Z,10.20
2023-04-16T06:14:41.771Z,9.38
2023-04-16T06:17:08.869Z,8.75
2023-04-16T06:19:36.304Z,9.90
2023-04-16T06:22:06.602Z,8.60
2023-04-16T06:24:33.737Z,8.38
2023-04-16T06:27:00.824Z,8.43
2023-04-16T06:29:33.668Z,8.97
2023-04-16T06:32:08.174Z,9.02
2023-04-16T06:34:35.404Z,8.97
2023-04-16T06:37:02.507Z,9.27
2023-04-16T06:39:29.526Z,8.85
2023-04-16T06:41:57.211Z,9.70
2023-04-16T06:44:24.228Z,8.35
2023-04-16T06:46:51.924Z,9.25
2023-04-16T06:49:18.963Z,9.13
2023-04-16T06:51:46.089Z,9.13
2023-04-16T06:54:13.201Z,8.52
2023-04-16T06:56:40.793Z,8.77
2023-04-16T06:59:08.235Z,9.27
2023-04-16T07:01:36.474Z,9.75
2023-04-16T07:04:04.406Z,8.45
2023-04-16T07:06:32.192Z,9.25
2023-04-16T07:08:59.241Z,9.13
2023-04-16T07:11:26.761Z,9.32
2023-04-16T07:13:53.951Z,9.27
2023-04-16T07:16:21.010Z,9.05
2023-04-16T07:18:48.671Z,7.72
2023-04-16T07:21:16.017Z,9.85
2023-04-16T07:23:43.348Z,8.55
2023-04-16T07:26:11.731Z,8.88
2023-04-16T07:28:38.976Z,8.43
2023-04-16T07:31:06.392Z,7.72
2023-04-16T07:33:33.867Z,8.40
2023-04-16T07:36:00.921Z,8.82
2023-04-16T07:38:27.932Z,8.45
2023-04-16T07:40:56.792Z,8.93
2023-04-16T07:43:24.073Z,8.23
2023-04-16T07:45:51.103Z,8.43
2023-04-16T07:48:18.335Z,8.82
2023-04-16T07:50:45.626Z,8.75
2023-04-16T07:53:12.656Z,9.05
2023-04-16T07:55:39.777Z,8.90
2023-04-16T07:58:07.920Z,8.98
2023-04-16T08:00:35.218Z,8.95
2023-04-16T08:03:02.548Z,9.32
2023-04-16T08:05:29.880Z,9.82
2023-04-16T08:07:57.021Z,9.55
2023-04-16T08:10:24.193Z,10.02
2023-04-16T08:12:51.412Z,9.48
2023-04-16T08:15:18.688Z,10.20
2023-04-16T08:17:45.867Z,9.98
2023-04-16T08:20:15.725Z,10.32
2023-04-16T08:22:46.495Z,10.23
2023-04-16T08:25:14.375Z,10.40
2023-04-16T08:27:41.700Z,10.00
2023-04-16T08:30:08.968Z,10.63
2023-04-16T08:32:36.104Z,9.73
2023-04-16T08:35:03.391Z,10.70
2023-04-16T08:37:30.485Z,10.43
2023-04-16T08:39:57.507Z,11.43
2023-04-16T08:42:44.986Z,11.18
2023-04-16T08:45:18.094Z,11.18
2023-04-16T08:47:53.087Z,10.60
2023-04-16T08:50:25.680Z,11.18
2023-04-16T08:52:59.674Z,12.02
2023-04-16T08:56:04.241Z,10.85
2023-04-16T08:58:34.786Z,11.98
2023-04-16T09:01:06.241Z,12.15
2023-04-16T09:03:36.442Z,12.52
2023-04-16T09:06:06.516Z,12.23
2023-04-16T09:08:36.106Z,13.05
2023-04-16T09:11:03.806Z,11.52
2023-04-16T09:13:32.472Z,12.52
2023-04-16T09:16:00.643Z,12.70
2023-04-16T09:18:28.505Z,12.35
2023-04-16T09:20:56.424Z,11.35
2023-04-16T09:23:25.016Z,13.10
2023-04-16T09:25:52.052Z,11.93
2023-04-16T09:28:48.952Z,12.50
2023-04-16T09:31:20.171Z,11.73
2023-04-16T09:34:16.669Z,12.80
2023-04-16T09:36:44.920Z,13.07
2023-04-16T09:39:20.431Z,12.90
2023-04-16T09:41:48.074Z,11.93
2023-04-16T09:44:15.865Z,12.18
2023-04-16T09:46:43.375Z,12.68
2023-04-16T09:49:11.510Z,12.32
2023-04-16T09:51:43.251Z,12.60
2023-04-16T09:54:10.424Z,13.38
2023-04-16T09:56:47.498Z,13.13
2023-04-16T09:59:24.941Z,13.13
2023-04-16T10:02:14.210Z,11.95
2023-04-16T10:04:50.790Z,12.27
2023-04-16T10:07:18.913Z,11.55
2023-04-16T10:09:52.494Z,13.55
2023-04-16T10:12:21.144Z,12.75
2023-04-16T10:14:50.059Z,12.60
2023-04-16T10:17:18.498Z,13.00
2023-04-16T10:19:49.006Z,13.60
2023-04-16T10:22:16.226Z,13.23
2023-04-16T10:24:44.025Z,12.50
2023-04-16T10:27:11.181Z,13.20
2023-04-16T10:29:38.970Z,12.88
2023-04-16T10:32:07.712Z,12.70
2023-04-16T10:34:36.557Z,12.50
2023-04-16T10:37:03.565Z,13.02
2023-04-16T10:39:30.770Z,12.23
2023-04-16T10:42:12.179Z,13.27
2023-04-16T10:44:44.306Z,12.65
2023-04-16T10:47:14.301Z,12.18
2023-04-16T10:49:43.604Z,12.38
2023-04-16T10:52:12.878Z,13.02
2023-04-16T10:54:41.277Z,12.68
2023-04-16T10:57:17.848Z,11.93
2023-04-16T10:59:46.095Z,13.27
2023-04-16T11:02:18.479Z,12.57
2023-04-16T11:04:50.044Z,13.60
2023-04-16T11:07:33.194Z,11.93
2023-04-16T11:10:05.498Z,12.20
2023-04-16T11:12:38.109Z,12.98
2023-04-16T11:15:11.980Z,12.63
2023-04-16T11:17:51.725Z,12.80
2023-04-16T11:20:27.961Z,12.30
2023-04-16T11:22:57.463Z,12.80
2023-04-16T11:25:27.814Z,12.23
2023-04-16T11:27:55.052Z,11.52
2023-04-16T11:30:34.291Z,12.70
2023-04-16T11:33:06.003Z,13.23
2023-04-16T11:35:33.076Z,13.40
2023-04-16T11:38:00.212Z,13.02
2023-04-16T11:40:33.785Z,12.57
2023-04-16T11:43:15.134Z,12.38
2023-04-16T11:46:01.634Z,12.07
2023-04-16T11:48:56.267Z,12.02
2023-04-16T11:51:23.732Z,13.02
2023-04-16T11:53:53.233Z,14.25
2023-04-16T11:56:32.370Z,13.13
2023-04-16T11:59:14.599Z,12.63
2023-04-16T12:01:46.697Z,11.95
2023-04-16T12:04:20.412Z,13.93
2023-04-16T12:07:07.575Z,13.75
2023-04-16T12:09:37.933Z,12.77
2023-04-16T12:12:25.118Z,12.63
2023-04-16T12:14:54.678Z,12.10
2023-04-16T12:17:21.936Z,13.25
2023-04-16T12:19:56.661Z,13.30
2023-04-16T12:22:37.124Z,12.55
2023-04-16T12:25:17.255Z,13.50
2023-04-16T12:27:53.470Z,11.77
2023-04-16T12:30:23.417Z,12.60
2023-04-16T12:33:14.348Z,12.00
2023-04-16T12:35:43.513Z,12.13
2023-04-16T12:38:11.965Z,12.88
2023-04-16T12:40:39.225Z,12.13
2023-04-16T12:43:06.261Z,12.10
2023-04-16T12:45:33.293Z,11.45
2023-04-16T12:48:00.397Z,10.88
2023-04-16T12:50:28.810Z,11.57
2023-04-16T12:52:57.421Z,11.40
2023-04-16T12:55:25.362Z,11.13
2023-04-16T12:57:55.653Z,11.10
2023-04-16T13:00:23.122Z,10.60
2023-04-16T13:02:50.451Z,10.25
2023-04-16T13:05:19.229Z,10.52
2023-04-16T13:07:46.608Z,10.85
2023-04-16T13:10:13.913Z,10.35
2023-04-16T13:12:41.117Z,10.52
2023-04-16T13:15:09.384Z,10.38
2023-04-16T13:17:36.416Z,9.70
2023-04-16T13:20:03.730Z,10.43
2023-04-16T13:22:30.974Z,10.55
2023-04-16T13:24:57.952Z,9.77
2023-04-16T13:27:25.091Z,9.85
2023-04-16T13:29:52.224Z,9.25
2023-04-16T13:32:19.480Z,9.57
2023-04-16T13:34:47.178Z,8.80
2023-04-16T13:37:14.239Z,9.10
2023-04-16T13:39:41.320Z,9.25
2023-04-16T13:42:08.373Z,9.27
2023-04-16T13:44:35.352Z,10.60
2023-04-16T13:47:02.405Z,10.00
2023-04-16T13:49:29.636Z,9.95
2023-04-16T13:51:56.696Z,9.23
2023-04-16T13:54:23.766Z,9.43
2023-04-16T13:56:51.243Z,9.43
2023-04-16T13:59:18.761Z,9.68
2023-04-16T14:01:45.919Z,9.90
2023-04-16T14:04:13.039Z,8.50
2023-04-16T14:06:40.240Z,9.23
2023-04-16T14:09:07.292Z,9.10
2023-04-16T14:11:34.381Z,9.32
2023-04-16T14:14:01.442Z,8.88
2023-04-16T14:16:28.981Z,8.85
2023-04-16T14:18:56.557Z,9.43
2023-04-16T14:21:23.615Z,8.07
2023-04-16T14:23:51.348Z,8.18
2023-04-16T14:26:18.533Z,8.95
2023-04-16T14:28:45.528Z,7.97
2023-04-16T14:31:12.504Z,9.25
2023-04-16T14:33:39.523Z,8.45
2023-04-16T14:36:06.885Z,8.77
2023-04-16T14:38:34.001Z,9.20
2023-04-16T14:41:01.364Z,8.30
2023-04-16T14:43:28.588Z,9.00
2023-04-16T14:45:57.164Z,8.75
2023-04-16T14:48:24.301Z,8.95
2023-04-16T14:50:51.394Z,8.73
2023-04-16T14:53:19.011Z,8.75
2023-04-16T14:55:46.166Z,8.40
2023-04-16T14:58:13.140Z,9.13
2023-04-16T15:00:40.188Z,8.80
2023-04-16T15:03:07.359Z,9.27
2023-04-16T15:05:36.095Z,9.30
2023-04-16T15:08:03.877Z,10.35
2023-04-16T15:10:31.061Z,9.10
2023-04-16T15:12:58.044Z,9.02
2023-04-16T15:15:25.045Z,9.77
2023-04-16T15:17:52.366Z,9.75
2023-04-16T15:20:19.429Z,9.27
2023-04-16T15:22:46.524Z,9.07
2023-04-16T15:25:14.516Z,8.32
2023-04-16T15:27:41.560Z,10.02
2023-04-16T15:30:09.378Z,9.18
2023-04-16T15:32:36.479Z,8.55
2023-04-16T15:35:04.950Z,9.57
2023-04-16T15:37:32.115Z,9.75
2023-04-16T15:39:59.259Z,9.60
2023-04-16T15:42:26.308Z,9.88
2023-04-16T15:44:53.369Z,10.20
2023-04-16T15:47:20.912Z,9.80
2023-04-16T15:49:47.936Z,10.35
2023-04-16T15:52:15.767Z,10.05
2023-04-16T15:54:43.188Z,10.90
2023-04-16T15:57:10.546Z,10.55
2023-04-16T15:59:37.537Z,10.43
2023-04-16T16:02:04.641Z,10.80
2023-04-16T16:04:31.804Z,9.68
2023-04-16T16:06:58.900Z,10.77
2023-04-16T16:09:26.746Z,10.38
2023-04-16T16:11:54.647Z,11.10
2023-04-16T16:14:22.753Z,10.65
2023-04-16T16:16:49.900Z,10.40
2023-04-16T16:19:17.548Z,10.23
2023-04-16T16:21:44.673Z,10.82
2023-04-16T16:24:11.867Z,11.40
2023-04-16T16:26:38.862Z,10.75
2023-04-16T16:29:07.096Z,10.23
2023-04-16T16:31:34.395Z,11.55
2023-04-16T16:34:01.603Z,10.75
2023-04-16T16:36:29.811Z,11.35
2023-04-16T16:38:57.236Z,10.90
2023-04-16T16:41:24.188Z,12.35
2023-04-16T16:43:51.389Z,12.68
2023-04-16T16:46:18.407Z,12.00
2023-04-16T16:48:45.532Z,11.52
2023-04-16T16:51:12.644Z,11.20
2023-04-16T16:53:39.680Z,11.63
2023-04-16T16:56:06.779Z,10.90
2023-04-16T16:58:33.786Z,10.85
2023-04-16T17:01:00.872Z,11.85
2023-04-16T17:03:28.044Z,11.50
2023-04-16T17:05:55.081Z,12.35
2023-04-16T17:08:22.103Z,11.82
2023-04-16T17:10:49.075Z,11.98
2023-04-16T17:13:19.752Z,11.80
2023-04-16T17:15:47.370Z,11.43
2023-04-16T17:18:14.433Z,12.23
2023-04-16T17:20:41.463Z,12.40
2023-04-16T17:23:08.929Z,12.27
2023-04-16T17:25:36.156Z,12.65
2023-04-16T17:28:03.780Z,13.02
2023-04-16T17:30:31.731Z,13.05
2023-04-16T17:32:58.942Z,12.57
2023-04-16T17:35:26.154Z,13.27
2023-04-16T17:37:53.133Z,12.63
2023-04-16T17:40:20.123Z,13.40
2023-04-16T17:42:48.791Z,11.48
2023-04-16T17:45:16.270Z,12.90
2023-04-16T17:47:44.434Z,13.13
2023-04-16T17:50:13.309Z,10.85
2023-04-16T17:52:40.456Z,13.07
2023-04-16T17:55:07.878Z,12.05
2023-04-16T17:57:34.983Z,12.40
2023-04-16T18:00:02.062Z,12.52
2023-04-16T18:02:29.455Z,14.40
2023-04-16T18:04:56.699Z,12.25
2023-04-16T18:07:23.829Z,12.30
2023-04-16T18:09:50.905Z,12.30
2023-04-16T18:12:17.933Z,12.73
2023-04-16T18:14:45.054Z,13.02
2023-04-16T18:17:12.998Z,13.23
2023-04-16T18:19:43.692Z,12.45
2023-04-16T18:22:13.225Z,13.32
2023-04-16T18:24:40.486Z,12.20
2023-04-16T18:27:07.519Z,13.02
2023-04-16T18:29:34.874Z,14.52
2023-04-16T18:32:04.329Z,12.93
2023-04-16T18:34:32.283Z,13.18
2023-04-16T18:36:59.355Z,12.60
2023-04-16T18:39:26.430Z,12.77
2023-04-16T18:41:53.538Z,13.82
2023-04-16T18:44:20.885Z,12.60
2023-04-16T18:46:48.503Z,13.20
2023-04-16T18:49:15.672Z,13.60
2023-04-16T18:51:42.670Z,11.85
2023-04-16T18:54:09.684Z,13.40
2023-04-16T18:56:36.778Z,14.82
2023-04-16T18:59:03.976Z,13.98
2023-04-16T19:01:31.215Z,13.35
2023-04-16T19:03:58.357Z,13.57
2023-04-16T19:06:27.052Z,13.50
2023-04-16T19:08:54.025Z,13.70
2023-04-16T19:11:21.160Z,14.20
2023-04-16T19:13:48.158Z,13.68
2023-04-16T19:16:15.832Z,13.02
2023-04-16T19:18:42.914Z,13.15
2023-04-16T19:21:10.950Z,13.38
2023-04-16T19:23:38.090Z,13.27
2023-04-16T19:26:05.449Z,13.35
2023-04-16T19:28:32.428Z,13.07
2023-04-16T19:30:59.421Z,13.57
2023-04-16T19:33:26.644Z,13.10
2023-04-16T19:35:53.617Z,13.50
2023-04-16T19:38:20.806Z,14.45
2023-04-16T19:40:49.203Z,13.45
2023-04-16T19:43:16.284Z,14.38
2023-04-16T19:45:54.792Z,15.13
2023-04-16T19:48:22.083Z,13.50
2023-04-16T19:50:49.302Z,13.93
2023-04-16T19:53:17.231Z,14.40
2023-04-16T19:55:44.596Z,13.25
2023-04-16T19:58:12.176Z,14.40
2023-04-16T20:00:43.749Z,14.32
2023-04-16T20:03:10.953Z,13.98
2023-04-16T20:05:38.150Z,13.68
2023-04-16T20:08:05.795Z,14.35
2023-04-16T20:10:32.935Z,13.45
2023-04-16T20:13:00.005Z,13.35
2023-04-16T20:15:27.265Z,13.18
2023-04-16T20:17:56.212Z,12.90
2023-04-16T20:20:23.793Z,12.90
2023-04-16T20:22:50.938Z,14.57
2023-04-16T20:25:19.295Z,13.00
2023-04-16T20:27:46.745Z,13.90
2023-04-16T20:30:14.363Z,14.65
2023-04-16T20:32:41.415Z,13.60
2023-04-16T20:35:11.574Z,14.15
2023-04-16T20:37:38.897Z,14.48
2023-04-16T20:40:10.717Z,15.27
2023-04-16T20:42:37.928Z,15.23
2023-04-16T20:45:05.676Z,15.85
2023-04-16T20:47:34.844Z,14.57
2023-04-16T20:50:02.869Z,14.80
2023-04-16T20:52:29.907Z,15.00
2023-04-16T20:54:56.962Z,15.52
2023-04-16T20:57:23.931Z,14.02
2023-04-16T20:59:50.958Z,14.93
2023-04-16T21:02:18.104Z,15.38
2023-04-16T21:04:45.552Z,15.27
2023-04-16T21:07:12.788Z,16.08
2023-04-16T21:09:39.786Z,13.90
2023-04-16T21:12:07.195Z,14.68
2023-04-16T21:14:34.599Z,13.80
2023-04-16T21:17:01.598Z,14.77
2023-04-16T21:19:28.617Z,14.70
2023-04-16T21:21:56.083Z,14.18
2023-04-16T21:24:23.103Z,14.60
2023-04-16T21:26:50.072Z,14.77
2023-04-16T21:29:17.112Z,14.82
2023-04-16T21:31:44.130Z,15.27
2023-04-16T21:34:11.142Z,14.98
2023-04-16T21:36:38.163Z,14.93
2023-04-16T21:39:05.194Z,15.93
2023-04-16T21:41:32.258Z,15.40
2023-04-16T21:43:59.356Z,15.32
2023-04-16T21:46:26.766Z,16.02
2023-04-16T21:48:53.913Z,15.75
2023-04-16T21:51:28.876Z,16.65
2023-04-16T21:53:59.123Z,16.63
2023-04-16T21:56:26.399Z,16.67
2023-04-16T21:58:53.338Z,17.00
2023-04-16T22:01:20.509Z,15.80
2023-04-16T22:03:50.782Z,16.42
2023-04-16T22:06:18.446Z,16.73
2023-04-16T22:08:45.430Z,16.23
2023-04-16T22:11:12.574Z,16.23
2023-04-16T22:13:42.007Z,16.02
2023-04-16T22:16:11.551Z,15.88
2023-04-16T22:18:40.988Z,16.38
2023-04-16T22:21:08.002Z,17.50
2023-04-16T22:23:34.942Z,17.15
2023-04-16T22:26:02.764Z,16.08
2023-04-16T22:28:29.867Z,16.75
2023-04-16T22:30:57.054Z,16.20
2023-04-16T22:33:24.110Z,16.85
2023-04-16T22:35:51.089Z,17.15
2023-04-16T22:38:18.073Z,16.38
2023-04-16T22:40:48.884Z,17.45
2023-04-16T22:43:17.534Z,18.38
2023-04-16T22:45:46.291Z,17.58
2023-04-16T22:48:13.503Z,17.25
2023-04-16T22:50:45.796Z,19.02
2023-04-16T22:53:12.752Z,18.05
2023-04-16T22:55:39.708Z,19.30
2023-04-16T22:58:06.697Z,18.70
2023-04-16T23:00:34.224Z,17.80
2023-04-16T23:03:01.433Z,18.95
2023-04-16T23:05:28.672Z,17.60
2023-04-16T23:07:55.675Z,18.58
2023-04-16T23:10:22.748Z,17.88
2023-04-16T23:12:49.703Z,18.88
2023-04-16T23:15:17.414Z,18.55
2023-04-16T23:17:45.476Z,19.83
2023-04-16T23:20:13.384Z,19.17
2023-04-16T23:22:41.390Z,19.00
2023-04-16T23:25:09.545Z,19.45
2023-04-16T23:27:37.134Z,18.63
2023-04-16T23:30:05.404Z,19.17
2023-04-16T23:32:34.088Z,19.52
2023-04-16T23:35:01.243Z,18.83
2023-04-16T23:37:28.239Z,17.48
2023-04-16T23:39:55.377Z,17.27
2023-04-16T23:42:22.429Z,17.00
2023-04-16T23:44:49.468Z,17.95
2023-04-16T23:47:16.709Z,16.75
2023-04-16T23:49:43.651Z,17.73
2023-04-16T23:52:10.878Z,18.55
2023-04-16T23:54:37.865Z,17.90
2023-04-16T23:57:04.927Z,17.25
2023-04-16T23:59:31.926Z,17.83
